Terminal Aerodrome Forecast
Issued by NWS Spokane, WA

Home | Current Version | Previous Version | Text Only | Print | Product List | Glossary On
Versions: 1 2 3 4 5 6 7 8 9 10 11 12 13 14 15 16 17 18 19 20 21 22 23 24 25 26 27 28 29 30 31
000
FTUS46 KOTX 211556 AAD
TAFEAT
TAF AMD
KEAT 211556Z 2116/2212 VRB03KT 1/2SM FZFG BKN001 OVC022
      TEMPO 2116/2118 2SM BR SCT001 BKN005 OVC022
     FM211800 VRB03KT 5SM BR SCT001 OVC018
     FM211900 15003KT P6SM OVC022
     FM220100 VRB03KT 4SM -RASN BR OVC018=

USA.gov is the U.S. government's official web portal to all federal, state and local government web resources and services.